Time;durP1;ratioP1;P1;durP2;ratioP2;P2;SDS_P1;SDS_P2;PMS_P1;PMS_P2;Temp;Humidity;BMP_temperature;BMP_pressure;BME280_temperature;BME280_humidity;BME280_pressure;Samples;Min_cycle;Max_cycle;Signal;HPM_P1;HPM_P2
2022/11/23 00:00:00;;;;;;;10.57;5.35;;;;;;;7.06;100.00;96163.72;4916951;29;20091;-77
2022/11/23 00:02:26;;;;;;;11.73;5.05;;;;;;;7.22;100.00;96154.66;4899913;29;20416;-76
2022/11/23 00:04:52;;;;;;;11.15;5.38;;;;;;;7.22;100.00;96138.72;4884431;29;20039;-77
2022/11/23 00:07:17;;;;;;;8.98;4.85;;;;;;;7.34;100.00;96121.88;4884339;29;20032;-77
2022/11/23 00:09:43;;;;;;;10.73;5.53;;;;;;;7.49;100.00;96136.72;4884421;29;20035;-77
2022/11/23 00:12:08;;;;;;;15.60;6.03;;;;;;;7.38;100.00;96132.16;4883904;29;20032;-77
2022/11/23 00:14:34;;;;;;;16.83;7.07;;;;;;;7.43;100.00;96131.84;4899961;29;20028;-77
2022/11/23 00:16:59;;;;;;;15.85;6.85;;;;;;;7.38;100.00;96110.06;4899970;29;20028;-77
2022/11/23 00:19:25;;;;;;;15.52;6.47;;;;;;;7.46;100.00;96121.84;4899627;29;20062;-77
2022/11/23 00:21:50;;;;;;;19.85;7.53;;;;;;;7.49;100.00;96110.97;4884064;29;20119;-77
2022/11/23 00:24:16;;;;;;;12.63;5.50;;;;;;;7.47;100.00;96114.72;4899846;29;20036;-77
2022/11/23 00:26:42;;;;;;;10.57;5.25;;;;;;;7.52;100.00;96115.22;4899892;29;20039;-78
2022/11/23 00:29:07;;;;;;;8.35;4.60;;;;;;;7.58;100.00;96104.13;4899804;29;20036;-78
2022/11/23 00:31:33;;;;;;;17.75;6.20;;;;;;;7.61;100.00;96110.09;4899830;29;20059;-78
2022/11/23 00:33:58;;;;;;;15.00;7.13;;;;;;;7.60;100.00;96120.81;4899654;29;20480;-78
2022/11/23 00:36:25;;;;;;;13.05;6.43;;;;;;;7.69;100.00;96112.16;4899441;29;20058;-77
2022/11/23 00:38:53;;;;;;;15.50;7.28;;;;;;;7.70;100.00;96108.56;4899531;29;20039;-78
2022/11/23 00:41:21;;;;;;;22.27;10.50;;;;;;;7.73;100.00;96110.13;4899084;29;20511;-78
2022/11/23 00:43:48;;;;;;;29.13;10.82;;;;;;;7.74;100.00;96115.34;4883758;29;20028;-76
2022/11/23 00:46:19;;;;;;;21.42;8.23;;;;;;;7.78;100.00;96113.31;4883776;29;20509;-78
2022/11/23 00:48:48;;;;;;;9.55;4.97;;;;;;;7.89;100.00;96130.19;4899242;29;20024;-77
2022/11/23 00:51:16;;;;;;;10.73;4.57;;;;;;;8.01;100.00;96126.63;4899266;29;20110;-78
2022/11/23 00:53:42;;;;;;;9.73;4.63;;;;;;;8.08;100.00;96119.88;4883742;29;20028;-77
2022/11/23 00:56:08;;;;;;;6.55;3.42;;;;;;;8.23;100.00;96122.34;4899240;29;20042;-77
2022/11/23 00:58:36;;;;;;;11.48;5.93;;;;;;;8.25;100.00;96128.38;4899158;29;20099;-77
2022/11/23 01:01:11;;;;;;;11.10;5.68;;;;;;;8.26;100.00;96127.44;4899124;29;20113;-77
2022/11/23 01:04:06;;;;;;;16.40;5.88;;;;;;;8.00;100.00;96111.59;4899193;29;20032;-78
2022/11/23 01:06:53;;;;;;;11.95;4.85;;;;;;;7.90;100.00;96091.13;4879649;29;20115;-77
2022/11/23 01:09:41;;;;;;;8.48;4.68;;;;;;;7.62;100.00;96061.25;4869703;29;20519;-79
2022/11/23 01:12:15;;;;;;;8.20;3.80;;;;;;;7.81;100.00;96094.47;4899309;29;20183;-78
2022/11/23 01:14:40;;;;;;;6.90;3.85;;;;;;;7.99;100.00;96141.00;4883623;29;20059;-77
2022/11/23 01:17:06;;;;;;;8.48;4.07;;;;;;;8.02;100.00;96133.66;4898954;29;20032;-76
2022/11/23 01:19:31;;;;;;;10.07;4.40;;;;;;;7.92;100.00;96121.13;4883099;29;20032;-77
2022/11/23 01:21:57;;;;;;;15.18;6.97;;;;;;;8.02;100.00;96130.13;4915894;29;20469;-77
2022/11/23 01:24:22;;;;;;;8.15;4.40;;;;;;;8.05;100.00;96122.78;4898003;29;20454;-76
2022/11/23 01:26:52;;;;;;;10.63;4.80;;;;;;;8.03;100.00;96139.78;4882993;29;20039;-77
2022/11/23 01:29:17;;;;;;;7.95;4.03;;;;;;;8.04;100.00;96145.03;4915594;29;20024;-77
2022/11/23 01:31:43;;;;;;;7.97;3.78;;;;;;;8.02;100.00;96146.97;4882958;29;20094;-77
2022/11/23 01:34:11;;;;;;;6.82;4.15;;;;;;;8.01;100.00;96142.59;4882851;29;20111;-77
2022/11/23 01:36:36;;;;;;;12.43;4.78;;;;;;;8.07;100.00;96155.44;4898381;29;20047;-77
2022/11/23 01:39:03;;;;;;;20.50;8.75;;;;;;;8.08;100.00;96130.53;4898231;29;20024;-76
2022/11/23 01:41:32;;;;;;;10.55;5.60;;;;;;;8.10;100.00;96147.22;4898319;29;20071;-77
2022/11/23 01:43:58;;;;;;;7.80;4.28;;;;;;;8.10;100.00;96131.25;4882574;29;20036;-77
2022/11/23 01:46:23;;;;;;;8.45;3.70;;;;;;;8.18;100.00;96115.53;4898314;29;20028;-77
2022/11/23 01:49:15;;;;;;;6.03;3.83;;;;;;;8.23;100.00;96117.00;4882493;29;20036;-77
2022/11/23 01:51:43;;;;;;;15.25;3.95;;;;;;;8.16;100.00;96116.63;4893622;29;20040;-76
2022/11/23 01:54:29;;;;;;;8.00;3.88;;;;;;;8.13;100.00;96117.72;4882588;29;20518;-77
2022/11/23 01:56:58;;;;;;;6.88;3.42;;;;;;;8.15;100.00;96142.41;4882852;29;20034;-76
2022/11/23 01:59:25;;;;;;;15.88;7.47;;;;;;;8.18;100.00;96139.50;4897885;29;20123;-76
2022/11/23 02:01:50;;;;;;;11.60;6.57;;;;;;;8.21;100.00;96156.25;4897990;29;20472;-77
2022/11/23 02:04:21;;;;;;;9.65;4.70;;;;;;;8.20;100.00;96147.41;4898052;29;20063;-78
2022/11/23 02:06:47;;;;;;;13.98;5.80;;;;;;;8.25;100.00;96141.69;4898388;29;20027;-78
2022/11/23 02:09:14;;;;;;;14.57;6.60;;;;;;;8.28;100.00;96113.06;4897867;29;20028;-78
2022/11/23 02:11:43;;;;;;;18.95;7.65;;;;;;;8.28;100.00;96125.53;4898083;29;20027;-78
2022/11/23 02:14:08;;;;;;;18.30;6.20;;;;;;;8.39;100.00;96118.44;4882505;29;20075;-76
2022/11/23 02:16:36;;;;;;;15.05;6.63;;;;;;;8.37;100.00;96104.38;4898048;29;20063;-77
2022/11/23 02:21:46;;;;;;;28.25;8.50;;;;;;;8.21;100.00;96125.13;4888749;29;20031;-76
2022/11/23 02:24:22;;;;;;;20.00;9.43;;;;;;;8.06;100.00;96116.47;4897653;29;20516;-77
2022/11/23 02:26:48;;;;;;;20.00;9.07;;;;;;;8.12;100.00;96110.66;4882263;29;20032;-77
2022/11/23 02:29:22;;;;;;;12.85;6.38;;;;;;;8.25;100.00;96121.25;4882166;29;20043;-76
2022/11/23 02:31:48;;;;;;;17.90;8.35;;;;;;;8.43;100.00;96113.72;4882412;29;20103;-77
2022/11/23 02:34:13;;;;;;;17.13;8.15;;;;;;;8.52;100.00;96108.53;4882067;29;20120;-78
2022/11/23 02:36:45;;;;;;;12.02;5.55;;;;;;;8.64;100.00;96122.75;4900573;29;20039;-77
2022/11/23 02:39:13;;;;;;;10.33;5.57;;;;;;;8.82;100.00;96126.66;4901641;29;20035;-78
2022/11/23 02:41:47;;;;;;;15.10;5.80;;;;;;;9.08;100.00;96143.25;4886962;29;20288;-77
2022/11/23 02:44:48;;;;;;;4.88;2.40;;;;;;;9.81;100.00;96180.97;4885810;29;20514;-77
2022/11/23 02:47:14;;;;;;;4.63;2.20;;;;;;;10.26;100.00;96185.25;4894600;29;20046;-77
2022/11/23 02:49:40;;;;;;;2.45;1.92;;;;;;;10.53;100.00;96171.41;4901518;29;20028;-78
2022/11/23 02:52:07;;;;;;;3.85;1.42;;;;;;;10.82;100.00;96163.59;4885989;29;20469;-76
2022/11/23 02:54:32;;;;;;;3.75;1.67;;;;;;;10.97;100.00;96154.28;4901302;29;20118;-77
2022/11/23 02:56:58;;;;;;;2.70;1.95;;;;;;;11.15;100.00;96144.66;4901538;29;20103;-77
2022/11/23 02:59:24;;;;;;;4.25;2.00;;;;;;;11.13;100.00;96141.28;4900992;29;20044;-77
2022/11/23 03:01:49;;;;;;;7.03;1.80;;;;;;;11.06;100.00;96134.75;4909478;29;20032;-77
2022/11/23 03:04:15;;;;;;;5.43;2.55;;;;;;;10.94;100.00;96135.81;4908941;29;20103;-78
2022/11/23 03:06:41;;;;;;;8.52;3.38;;;;;;;10.85;100.00;96125.91;4904554;29;20050;-79
2022/11/23 03:09:06;;;;;;;10.52;4.20;;;;;;;10.81;100.00;96133.34;4890183;29;20028;-80
2022/11/23 03:11:32;;;;;;;3.42;2.30;;;;;;;10.72;100.00;96098.50;4885258;29;20028;-78
2022/11/23 03:13:58;;;;;;;7.47;2.42;;;;;;;10.65;100.00;96097.31;4914313;29;20403;-79
2022/11/23 03:16:23;;;;;;;8.05;3.42;;;;;;;10.61;100.00;96079.88;4936352;29;20551;-80
2022/11/23 03:18:50;;;;;;;7.55;3.03;;;;;;;10.58;100.00;96075.59;4904908;29;20028;-80
2022/11/23 03:21:15;;;;;;;6.80;3.05;;;;;;;10.59;100.00;96065.75;4911616;29;20028;-80
2022/11/23 03:23:41;;;;;;;5.03;2.92;;;;;;;10.60;100.00;96054.97;4903865;29;20419;-80
2022/11/23 03:26:06;;;;;;;6.32;2.35;;;;;;;10.78;100.00;96055.19;4920370;29;20035;-79
2022/11/23 03:28:32;;;;;;;4.65;2.65;;;;;;;10.90;100.00;96048.78;4902376;29;20059;-79
2022/11/23 03:30:57;;;;;;;6.18;2.80;;;;;;;11.02;100.00;96037.00;4885451;29;20035;-79
2022/11/23 03:33:23;;;;;;;7.18;3.22;;;;;;;11.18;100.00;96029.31;4900380;29;20039;-78
2022/11/23 03:35:49;;;;;;;2.45;2.15;;;;;;;11.25;100.00;96027.78;4893240;29;20024;-79
2022/11/23 03:38:14;;;;;;;1.15;1.00;;;;;;;11.30;100.00;96005.97;4900696;29;20043;-79
2022/11/23 03:40:40;;;;;;;2.00;1.30;;;;;;;11.47;100.00;95999.09;4902763;29;20036;-79
2022/11/23 03:43:05;;;;;;;4.13;1.50;;;;;;;11.54;100.00;96000.22;4890957;29;20564;-80
2022/11/23 03:45:31;;;;;;;4.25;1.83;;;;;;;11.65;100.00;95992.06;4894122;29;20066;-79
2022/11/23 03:47:59;;;;;;;2.55;1.85;;;;;;;11.73;100.00;95978.84;4891128;29;20024;-79
2022/11/23 03:50:25;;;;;;;2.50;1.48;;;;;;;11.74;100.00;95980.56;4892632;29;20118;-80
2022/11/23 03:52:51;;;;;;;1.77;1.20;;;;;;;11.76;100.00;95970.53;4919726;29;20030;-80
2022/11/23 03:55:19;;;;;;;5.30;1.60;;;;;;;11.80;100.00;95972.81;4913290;29;20547;-79
2022/11/23 03:57:47;;;;;;;1.48;1.38;;;;;;;11.76;100.00;95970.53;4916841;29;20047;-80
2022/11/23 04:00:13;;;;;;;3.13;1.92;;;;;;;11.74;100.00;95980.56;4919156;29;20071;-80
2022/11/23 04:02:40;;;;;;;2.50;1.70;;;;;;;11.77;100.00;95982.94;4911126;29;20055;-79
2022/11/23 04:05:06;;;;;;;2.08;1.48;;;;;;;11.87;100.00;95970.41;4914356;29;20055;-80
2022/11/23 04:07:32;;;;;;;2.40;1.80;;;;;;;11.88;100.00;95967.56;4892191;29;20589;-79
2022/11/23 04:09:57;;;;;;;4.10;2.13;;;;;;;11.92;100.00;95957.41;4934891;29;20040;-80
2022/11/23 04:12:24;;;;;;;3.45;2.20;;;;;;;11.89;100.00;95963.06;4918801;29;20083;-80
2022/11/23 04:14:59;;;;;;;3.63;2.00;;;;;;;11.82;100.00;95961.94;4917176;29;20028;-81
2022/11/23 04:17:58;;;;;;;3.83;1.83;;;;;;;11.65;100.00;95943.88;4903192;29;20032;-81
2022/11/23 04:20:23;;;;;;;3.38;1.92;;;;;;;11.81;100.00;95960.25;4905576;29;20032;-80
2022/11/23 04:22:59;;;;;;;4.47;3.00;;;;;;;11.61;100.00;95945.97;4897631;29;20115;-79
2022/11/23 04:25:30;;;;;;;2.65;1.88;;;;;;;11.68;100.00;95949.78;4904899;29;20030;-80
2022/11/23 04:27:56;;;;;;;2.60;1.35;;;;;;;11.71;100.00;95956.72;4912215;29;20074;-79
2022/11/23 04:30:22;;;;;;;2.90;1.70;;;;;;;11.74;100.00;95959.97;4899991;29;20064;-79
2022/11/23 04:32:47;;;;;;;3.88;2.00;;;;;;;11.76;100.00;95966.03;4886418;29;20040;-79
2022/11/23 04:35:13;;;;;;;3.85;2.28;;;;;;;11.82;100.00;95967.28;4906719;29;20476;-78
2022/11/23 04:37:39;;;;;;;4.35;2.53;;;;;;;11.95;100.00;95973.22;4902755;29;20126;-79
2022/11/23 04:40:05;;;;;;;5.18;2.63;;;;;;;11.98;100.00;95983.66;4927785;29;20115;-80
2022/11/23 04:42:30;;;;;;;3.75;2.10;;;;;;;12.05;100.00;95979.41;4902245;29;20030;-78
2022/11/23 04:44:56;;;;;;;3.85;2.35;;;;;;;12.12;100.00;95974.34;4899644;29;20028;-79
2022/11/23 04:47:23;;;;;;;2.13;1.70;;;;;;;12.18;100.00;95987.16;4934924;29;20106;-79
2022/11/23 04:49:49;;;;;;;2.25;1.50;;;;;;;12.23;100.00;95993.78;4918244;29;20031;-73
2022/11/23 04:52:15;;;;;;;3.03;1.98;;;;;;;12.26;100.00;95981.94;4892839;29;20024;-80
2022/11/23 04:54:40;;;;;;;2.83;2.20;;;;;;;12.27;100.00;95984.47;4884921;29;20050;-80
2022/11/23 04:57:06;;;;;;;6.82;3.60;;;;;;;12.28;100.00;95983.47;4915978;29;20427;-79
2022/11/23 04:59:33;;;;;;;6.47;4.15;;;;;;;12.29;100.00;95990.53;4892679;29;20047;-79
2022/11/23 05:01:58;;;;;;;5.45;2.88;;;;;;;12.25;100.00;95986.44;4891789;29;20044;-80
2022/11/23 05:04:24;;;;;;;4.10;3.03;;;;;;;12.24;100.00;95981.22;4915788;29;20111;-80
2022/11/23 05:06:49;;;;;;;3.22;2.20;;;;;;;12.24;100.00;95984.72;4900753;29;20111;-80
2022/11/23 05:09:15;;;;;;;5.68;2.92;;;;;;;12.29;100.00;95998.56;4883770;29;20024;-72
2022/11/23 05:11:40;;;;;;;4.68;2.30;;;;;;;12.19;100.00;95986.16;4915759;29;20112;-72
2022/11/23 05:14:06;;;;;;;6.32;3.38;;;;;;;12.24;100.00;95992.78;4898811;29;20118;-72
2022/11/23 05:16:31;;;;;;;6.70;3.92;;;;;;;12.22;100.00;96015.34;4882938;29;20413;-71
2022/11/23 05:18:57;;;;;;;4.50;2.97;;;;;;;12.07;100.00;96014.94;4898659;29;20020;-70
2022/11/23 05:21:22;;;;;;;8.88;5.32;;;;;;;11.78;100.00;96025.66;4915647;29;20028;-72
2022/11/23 05:23:48;;;;;;;18.77;6.18;;;;;;;11.57;100.00;96042.78;4898287;29;20024;-71
2022/11/23 05:26:13;;;;;;;12.38;6.30;;;;;;;11.35;100.00;96047.38;4906038;29;20078;-84
2022/11/23 05:28:39;;;;;;;18.20;8.65;;;;;;;11.20;100.00;96048.75;4892728;29;20043;-79
2022/11/23 05:31:05;;;;;;;14.40;5.35;;;;;;;10.92;100.00;96046.78;4889327;29;20705;-78
2022/11/23 05:33:30;;;;;;;17.48;10.90;;;;;;;10.92;100.00;96067.38;4902497;29;20035;-78
2022/11/23 05:35:56;;;;;;;12.30;6.57;;;;;;;10.85;100.00;96064.38;4907549;29;20031;-81
2022/11/23 05:38:21;;;;;;;15.73;6.22;;;;;;;10.71;100.00;96060.22;4892347;29;20024;-79
2022/11/23 05:40:47;;;;;;;6.88;4.57;;;;;;;10.71;100.00;96080.75;4898564;29;20043;-80
2022/11/23 05:43:13;;;;;;;9.75;4.50;;;;;;;10.81;100.00;96082.50;4894662;29;20039;-78
2022/11/23 05:45:38;;;;;;;7.40;3.83;;;;;;;10.79;100.00;96087.16;4880867;29;20043;-80
2022/11/23 05:48:04;;;;;;;4.65;3.60;;;;;;;10.70;100.00;96069.22;4880329;29;20099;-79
2022/11/23 05:50:30;;;;;;;10.35;5.38;;;;;;;10.57;100.00;96073.09;4879673;29;20042;-79
2022/11/23 05:52:58;;;;;;;9.57;5.65;;;;;;;10.48;100.00;96074.72;4892433;29;20023;-80
2022/11/23 05:55:25;;;;;;;13.07;5.68;;;;;;;10.60;100.00;96089.72;4898276;29;20078;-79
2022/11/23 05:57:51;;;;;;;12.13;6.88;;;;;;;10.66;100.00;96086.50;4883551;29;20038;-79
2022/11/23 06:00:17;;;;;;;10.88;6.75;;;;;;;10.74;100.00;96081.34;4897992;29;20060;-80
2022/11/23 06:02:42;;;;;;;19.73;10.80;;;;;;;10.75;100.00;96082.19;4898075;29;20072;-80
2022/11/23 06:05:08;;;;;;;57.03;27.35;;;;;;;10.84;100.00;96076.91;4897829;29;20032;-79
2022/11/23 06:07:34;;;;;;;49.55;22.98;;;;;;;10.94;100.00;96082.31;4897963;29;20077;-80
2022/11/23 06:10:01;;;;;;;33.45;16.17;;;;;;;11.03;100.00;96084.19;4881847;29;20040;-79
2022/11/23 06:12:27;;;;;;;33.30;16.00;;;;;;;11.05;100.00;96084.03;4881523;29;20046;-81
2022/11/23 06:14:53;;;;;;;30.50;13.88;;;;;;;11.08;100.00;96073.91;4897656;29;20040;-80
2022/11/23 06:17:19;;;;;;;16.27;8.38;;;;;;;11.07;100.00;96076.75;4882414;29;20120;-80
2022/11/23 06:19:44;;;;;;;11.73;5.88;;;;;;;11.00;100.00;96073.75;4885119;29;20028;-79
2022/11/23 06:22:10;;;;;;;11.07;5.32;;;;;;;10.97;100.00;96079.38;4897538;29;20028;-79
2022/11/23 06:24:36;;;;;;;12.88;5.20;;;;;;;10.93;100.00;96077.94;4897762;29;20060;-79
2022/11/23 06:27:01;;;;;;;9.48;6.07;;;;;;;10.99;100.00;96080.06;4897437;29;20146;-80
2022/11/23 06:29:27;;;;;;;11.13;5.75;;;;;;;11.10;100.00;96082.66;4882095;29;20415;-80
2022/11/23 06:31:53;;;;;;;9.63;5.78;;;;;;;11.31;100.00;96091.50;4897611;29;20424;-80
2022/11/23 06:34:18;;;;;;;19.35;7.70;;;;;;;11.23;100.00;96088.63;4867036;29;20028;-80
2022/11/23 06:36:44;;;;;;;16.58;9.52;;;;;;;11.26;100.00;96088.34;4881952;29;20115;-80
2022/11/23 06:39:09;;;;;;;16.65;7.85;;;;;;;11.65;100.00;96099.19;4897378;29;20484;-79
2022/11/23 06:41:35;;;;;;;11.05;5.68;;;;;;;12.29;100.00;96110.31;4897828;29;20055;-78
2022/11/23 06:44:01;;;;;;;11.68;5.57;;;;;;;12.87;100.00;96093.19;4897452;29;20060;-80
2022/11/23 06:46:26;;;;;;;13.13;6.63;;;;;;;13.03;100.00;96092.56;4897566;29;20106;-79
2022/11/23 06:48:52;;;;;;;50.38;19.15;;;;;;;13.12;100.00;96083.69;4881931;29;20020;-79
2022/11/23 06:51:17;;;;;;;33.33;15.10;;;;;;;13.06;100.00;96060.06;4881699;29;20028;-79
2022/11/23 06:53:43;;;;;;;15.23;6.60;;;;;;;13.07;100.00;96063.63;4897302;29;20123;-79
2022/11/23 06:56:09;;;;;;;13.57;6.53;;;;;;;13.12;100.00;96059.53;4897276;29;20029;-79
2022/11/23 06:58:35;;;;;;;13.38;6.88;;;;;;;13.28;100.00;96054.38;4897370;29;20131;-78
2022/11/23 07:01:03;;;;;;;20.33;10.55;;;;;;;12.98;100.00;96033.94;4906937;29;20055;-79
2022/11/23 07:03:29;;;;;;;25.42;11.75;;;;;;;13.08;100.00;96058.09;4900308;29;20044;-79
2022/11/23 07:05:54;;;;;;;15.27;8.05;;;;;;;13.13;100.00;96049.63;4899998;29;20400;-80
2022/11/23 07:08:20;;;;;;;15.88;7.65;;;;;;;13.10;100.00;96041.88;4907531;29;20031;-79
2022/11/23 07:10:46;;;;;;;17.08;8.45;;;;;;;12.88;100.00;96030.47;4901977;29;20032;-79
2022/11/23 07:13:13;;;;;;;19.13;9.05;;;;;;;13.05;100.00;96050.31;4889868;29;20390;-80
2022/11/23 07:15:39;;;;;;;34.28;14.05;;;;;;;13.20;100.00;96061.44;4900238;29;20031;-79
2022/11/23 07:18:05;;;;;;;21.02;11.45;;;;;;;12.94;100.00;96045.16;4883225;29;20028;-80
2022/11/23 07:20:31;;;;;;;23.85;11.25;;;;;;;12.92;100.00;96050.63;4907272;29;20099;-77
2022/11/23 07:23:05;;;;;;;20.05;9.65;;;;;;;13.30;100.00;96060.44;4893329;29;20032;-78
2022/11/23 07:25:33;;;;;;;23.00;9.60;;;;;;;13.60;100.00;96056.59;4913753;29;20127;-78
2022/11/23 07:28:00;;;;;;;13.23;7.65;;;;;;;13.69;100.00;96042.25;4901119;29;20028;-78
2022/11/23 07:30:26;;;;;;;28.85;10.65;;;;;;;13.39;100.00;96032.69;4896002;29;20179;-78
2022/11/23 07:32:52;;;;;;;19.13;7.95;;;;;;;13.24;100.00;96033.31;4888810;29;20039;-78
2022/11/23 07:35:18;;;;;;;16.13;6.93;;;;;;;13.11;100.00;96024.75;4903250;29;20416;-78
2022/11/23 07:37:44;;;;;;;23.15;8.48;;;;;;;12.81;100.00;96023.16;4903609;29;20129;-78
2022/11/23 07:40:10;;;;;;;8.80;4.40;;;;;;;12.78;100.00;96037.69;4900888;29;20027;-78
2022/11/23 07:42:36;;;;;;;10.90;4.65;;;;;;;12.64;100.00;96026.59;4885634;29;20068;-78
2022/11/23 07:45:04;;;;;;;14.63;7.55;;;;;;;12.65;100.00;96039.00;4895108;29;20056;-79
2022/11/23 07:47:29;;;;;;;11.88;5.53;;;;;;;12.76;100.00;96038.84;4914694;29;20039;-77
2022/11/23 07:49:55;;;;;;;16.00;6.00;;;;;;;13.07;100.00;96043.00;4900835;29;20539;-78
2022/11/23 07:52:21;;;;;;;11.15;6.03;;;;;;;13.40;100.00;96047.81;4903394;29;20037;-78
2022/11/23 07:54:46;;;;;;;24.42;10.60;;;;;;;13.32;100.00;96038.81;4919272;29;20036;-79
2022/11/23 07:57:12;;;;;;;25.88;10.95;;;;;;;13.35;100.00;96039.34;4893945;29;20031;-78
2022/11/23 07:59:39;;;;;;;23.85;9.80;;;;;;;13.41;100.00;96052.16;4907882;29;20091;-78
2022/11/23 08:02:07;;;;;;;31.83;11.18;;;;;;;13.56;100.00;96045.31;4892660;29;20036;-77
2022/11/23 08:04:33;;;;;;;27.50;12.40;;;;;;;13.73;100.00;96040.13;4906977;29;20035;-79
2022/11/23 08:06:59;;;;;;;24.27;12.10;;;;;;;13.86;100.00;96054.03;4892184;29;20024;-78
2022/11/23 08:09:25;;;;;;;27.85;13.70;;;;;;;14.26;100.00;96049.06;4902573;29;20024;-78
2022/11/23 08:11:50;;;;;;;30.98;17.20;;;;;;;14.69;100.00;96050.13;4907578;29;20378;-78
2022/11/23 08:14:16;;;;;;;19.40;10.65;;;;;;;15.35;97.58;96063.84;4886777;29;20031;-78
2022/11/23 08:16:41;;;;;;;14.85;7.80;;;;;;;15.90;91.24;96058.88;4899935;29;20027;-79
2022/11/23 08:19:07;;;;;;;14.77;9.43;;;;;;;16.48;86.83;96058.81;4884467;29;20394;-80
2022/11/23 08:21:32;;;;;;;16.35;8.88;;;;;;;17.19;83.58;96057.13;4891735;29;20523;-80
2022/11/23 08:23:58;;;;;;;16.08;8.80;;;;;;;17.69;78.72;96045.13;4907813;29;20028;-79
2022/11/23 08:26:23;;;;;;;11.00;7.63;;;;;;;18.25;74.92;96034.00;4904606;29;20064;-79
2022/11/23 08:28:49;;;;;;;11.88;6.80;;;;;;;18.72;70.90;96014.91;4927355;29;20031;-79
2022/11/23 08:31:14;;;;;;;12.65;6.90;;;;;;;17.75;72.31;95974.97;4907408;29;20024;-80
2022/11/23 08:33:40;;;;;;;12.50;7.35;;;;;;;17.98;73.45;96001.22;4895186;29;20023;-80
2022/11/23 08:36:07;;;;;;;9.70;6.30;;;;;;;18.89;70.12;96019.13;4910643;29;20385;-79
2022/11/23 08:38:33;;;;;;;16.90;8.57;;;;;;;19.61;66.86;96008.56;4897424;29;20480;-80
2022/11/23 08:41:00;;;;;;;21.90;10.50;;;;;;;19.84;64.81;95993.00;4914691;29;20068;-78
2022/11/23 08:43:26;;;;;;;11.75;6.70;;;;;;;20.44;62.22;95991.81;4901060;29;20095;-77
2022/11/23 08:45:55;;;;;;;12.35;7.55;;;;;;;20.77;59.95;95976.63;4886752;29;21197;-78
2022/11/23 08:48:21;;;;;;;15.52;6.05;;;;;;;20.67;59.17;95962.56;4897640;29;20035;-78
2022/11/23 08:50:47;;;;;;;8.43;5.22;;;;;;;19.68;61.75;95957.09;4894626;29;20043;-77
2022/11/23 08:53:12;;;;;;;10.90;5.15;;;;;;;19.84;61.34;95957.72;4910427;29;20031;-78
2022/11/23 08:55:38;;;;;;;8.48;5.63;;;;;;;19.61;62.25;95967.03;4897115;29;20035;-78
2022/11/23 08:58:04;;;;;;;11.75;7.05;;;;;;;19.92;61.23;95952.19;4907429;29;20473;-78
2022/11/23 09:00:29;;;;;;;10.48;6.38;;;;;;;21.08;59.61;95977.13;4897546;29;20062;-77
2022/11/23 09:02:58;;;;;;;13.80;7.65;;;;;;;21.96;56.91;95976.41;4896036;29;20600;-78
2022/11/23 09:05:28;;;;;;;13.98;6.78;;;;;;;22.41;55.29;95977.56;4893598;29;20118;-78
2022/11/23 09:07:58;;;;;;;9.07;6.00;;;;;;;23.15;51.52;95956.44;4901610;29;20091;-79
2022/11/23 09:10:24;;;;;;;21.88;7.82;;;;;;;24.41;48.54;95952.22;4902294;29;20040;-77
2022/11/23 09:12:50;;;;;;;14.80;7.45;;;;;;;24.73;47.71;95942.13;4890433;29;20035;-79
2022/11/23 09:15:15;;;;;;;12.18;7.75;;;;;;;24.82;46.86;95926.31;4898224;29;20054;-77
2022/11/23 09:17:41;;;;;;;17.95;8.63;;;;;;;25.87;44.72;95940.59;4891218;29;20031;-78
2022/11/23 09:20:07;;;;;;;7.57;4.80;;;;;;;25.53;45.39;95919.34;4896815;29;20166;-77
2022/11/23 09:22:33;;;;;;;8.10;4.93;;;;;;;24.63;45.80;95896.13;4904357;29;20468;-77
2022/11/23 09:24:58;;;;;;;19.90;10.50;;;;;;;25.22;45.03;95890.16;4896659;29;20111;-78
2022/11/23 09:27:24;;;;;;;55.40;28.80;;;;;;;25.29;44.61;95892.78;4896145;29;20030;-78
2022/11/23 09:29:50;;;;;;;13.70;7.43;;;;;;;25.92;43.42;95879.63;4903233;29;20030;-75
2022/11/23 09:32:15;;;;;;;17.30;6.20;;;;;;;25.18;44.65;95869.75;4898470;29;20028;-76
2022/11/23 09:34:41;;;;;;;9.13;5.22;;;;;;;24.94;45.38;95869.81;4908876;29;20440;-76
2022/11/23 09:37:07;;;;;;;5.47;4.00;;;;;;;24.80;43.73;95858.94;4912085;29;20058;-75
2022/11/23 09:39:32;;;;;;;5.45;4.38;;;;;;;23.22;47.18;95839.13;4909410;29;20024;-75
2022/11/23 09:42:07;;;;;;;11.57;5.18;;;;;;;24.66;44.77;95865.59;4886738;29;20036;-76
2022/11/23 09:44:56;;;;;;;21.67;5.10;;;;;;;23.83;46.67;95844.94;4897832;29;20078;-75
2022/11/23 09:47:53;;;;;;;10.77;6.13;;;;;;;24.16;46.20;95867.47;4902931;29;20042;-77
2022/11/23 09:50:33;;;;;;;9.55;4.28;;;;;;;24.52;44.71;95850.34;4896501;29;20043;-76
2022/11/23 09:53:04;;;;;;;6.78;3.60;;;;;;;25.31;43.07;95860.56;4910452;29;20035;-79
2022/11/23 09:55:38;;;;;;;10.60;3.13;;;;;;;24.82;41.17;95816.91;4895895;29;20038;-78
2022/11/23 09:58:05;;;;;;;3.25;1.85;;;;;;;24.70;41.83;95819.50;4888407;29;20060;-78
2022/11/23 10:00:36;;;;;;;4.40;2.45;;;;;;;24.29;42.75;95828.28;4885033;29;20523;-78
2022/11/23 10:03:02;;;;;;;6.45;3.25;;;;;;;25.60;41.02;95848.03;4910207;29;20468;-78
2022/11/23 10:05:32;;;;;;;5.47;3.17;;;;;;;25.80;39.97;95830.28;4898162;29;20055;-79
2022/11/23 10:08:04;;;;;;;3.83;2.13;;;;;;;25.97;39.16;95826.88;4899735;29;20118;-79
2022/11/23 10:10:59;;;;;;;4.15;2.08;;;;;;;25.56;39.88;95825.75;4916703;29;20035;-79
2022/11/23 10:13:24;;;;;;;4.70;2.50;;;;;;;24.92;41.19;95826.25;4911593;29;20035;-80
2022/11/23 10:15:50;;;;;;;3.03;2.22;;;;;;;26.50;38.90;95848.84;4908882;29;20028;-77
2022/11/23 10:18:48;;;;;;;4.28;2.60;;;;;;;26.63;38.69;95823.97;4906244;29;20032;-79
2022/11/23 10:21:23;;;;;;;4.60;2.53;;;;;;;27.26;37.45;95824.91;4883320;29;20046;-78
2022/11/23 10:24:03;;;;;;;8.13;2.35;;;;;;;27.62;37.67;95818.31;4893720;29;20070;-85
2022/11/23 10:26:31;;;;;;;5.50;3.20;;;;;;;27.62;37.07;95812.00;4888224;29;20047;-80
2022/11/23 10:29:08;;;;;;;3.78;2.00;;;;;;;27.46;36.65;95799.84;4913496;29;20034;-81
2022/11/23 10:31:34;;;;;;;3.35;2.40;;;;;;;25.76;38.60;95785.22;4889734;29;20489;-80
2022/11/23 10:34:11;;;;;;;6.10;3.33;;;;;;;23.85;41.04;95768.25;4908780;29;20056;-80
2022/11/23 10:36:38;;;;;;;2.80;2.25;;;;;;;22.61;43.35;95784.88;4916358;29;20059;-80
2022/11/23 10:39:22;;;;;;;8.23;2.05;;;;;;;23.12;43.13;95820.47;4890454;29;20099;-79
2022/11/23 10:41:51;;;;;;;2.83;1.77;;;;;;;23.26;42.47;95793.13;4901161;29;20060;-79
2022/11/23 10:44:17;;;;;;;5.53;2.95;;;;;;;22.87;43.50;95802.28;4914255;29;20032;-80
2022/11/23 10:46:43;;;;;;;7.90;2.85;;;;;;;22.54;44.87;95811.34;4920573;29;20035;-79
2022/11/23 10:49:12;;;;;;;11.77;4.35;;;;;;;22.45;44.72;95812.59;4913744;29;20484;-81
2022/11/23 10:51:37;;;;;;;11.25;4.05;;;;;;;21.78;46.04;95799.13;4890215;29;20034;-79
2022/11/23 10:54:08;;;;;;;9.35;3.15;;;;;;;21.27;47.76;95792.50;4902916;29;20400;-80
2022/11/23 10:56:33;;;;;;;3.63;2.80;;;;;;;20.71;48.13;95789.09;4885081;29;20115;-80
2022/11/23 10:58:59;;;;;;;7.15;3.13;;;;;;;20.67;49.12;95809.56;4906157;29;20102;-79
2022/11/23 11:01:28;;;;;;;8.07;2.55;;;;;;;20.05;50.59;95787.78;4906751;29;20077;-79
2022/11/23 11:03:55;;;;;;;7.00;2.70;;;;;;;19.88;50.67;95798.06;4887542;29;20040;-79
2022/11/23 11:06:26;;;;;;;7.93;3.80;;;;;;;19.46;51.73;95794.34;4906553;29;20032;-79
2022/11/23 11:08:57;;;;;;;8.52;3.28;;;;;;;19.12;53.13;95806.81;4896612;29;20027;-80
2022/11/23 11:11:25;;;;;;;12.52;3.75;;;;;;;18.88;53.36;95811.56;4899150;29;20524;-79
2022/11/23 11:14:09;;;;;;;7.07;4.20;;;;;;;18.41;53.77;95803.78;4907058;29;20559;-80
2022/11/23 11:16:36;;;;;;;12.43;4.93;;;;;;;18.12;55.60;95821.84;4895201;29;20039;-81
2022/11/23 11:19:27;;;;;;;15.82;5.07;;;;;;;18.36;56.15;95840.56;4897125;29;20034;-80
2022/11/23 11:21:53;;;;;;;11.60;4.78;;;;;;;18.89;54.44;95847.59;4931595;29;20094;-79
2022/11/23 11:24:26;;;;;;;6.70;2.33;;;;;;;20.88;51.03;95878.28;4910249;29;20031;-79
2022/11/23 11:27:03;;;;;;;4.95;1.77;;;;;;;20.47;49.61;95833.88;4903870;29;20043;-79
2022/11/23 11:29:52;;;;;;;2.60;1.52;;;;;;;21.24;48.08;95847.31;4914450;29;20470;-78